Time;durP1;ratioP1;P1;durP2;ratioP2;P2;SDS_P1;SDS_P2;PMS_P1;PMS_P2;Temp;Humidity;BMP_temperature;BMP_pressure;BME280_temperature;BME280_humidity;BME280_pressure;Samples;Min_cycle;Max_cycle;Signal;HPM_P1;HPM_P2
2024/01/02 00:00:13;;;;;;;7.05;1.52;;;;;;;;;;4994292;28;102165;-81
2024/01/02 00:02:39;;;;;;;5.90;1.38;;;;;;;;;;4996045;28;99598;-81
2024/01/02 00:05:07;;;;;;;6.45;1.40;;;;;;;;;;5000131;28;97907;-81
2024/01/02 00:07:33;;;;;;;;;;;;;;;;;;4996031;28;99879;-82
2024/01/02 00:10:00;;;;;;;4.00;1.33;;;;;;;;;;4998840;28;98906;-81
2024/01/02 00:12:26;;;;;;;7.47;1.60;;;;;;;;;;4997049;28;100333;-81
2024/01/02 00:14:53;;;;;;;6.13;1.40;;;;;;;;;;4995745;28;98856;-81
2024/01/02 00:17:20;;;;;;;6.10;1.60;;;;;;;;;;4997734;28;98491;-81
2024/01/02 00:19:46;;;;;;;6.10;1.35;;;;;;;;;;4997613;28;98310;-81
2024/01/02 00:22:13;;;;;;;7.40;1.58;;;;;;;;;;4995408;28;98801;-81
2024/01/02 00:24:40;;;;;;;3.90;1.30;;;;;;;;;;4995549;28;98584;-81
2024/01/02 00:27:06;;;;;;;5.55;1.55;;;;;;;;;;5000768;28;98859;-81
2024/01/02 00:29:33;;;;;;;5.50;1.40;;;;;;;;;;4987786;28;98152;-83
2024/01/02 00:31:59;;;;;;;5.45;1.67;;;;;;;;;;5010564;28;100606;-83
2024/01/02 00:34:26;;;;;;;3.88;1.40;;;;;;;;;;4979745;28;101018;-83
2024/01/02 00:36:53;;;;;;;6.28;1.20;;;;;;;;;;5001124;28;99156;-83
2024/01/02 00:39:19;;;;;;;6.20;1.40;;;;;;;;;;5016885;27;99461;-83
2024/01/02 00:41:46;;;;;;;5.43;1.30;;;;;;;;;;5003840;27;99216;-83
2024/01/02 00:44:12;;;;;;;6.72;1.33;;;;;;;;;;4979262;28;98470;-82
2024/01/02 00:46:39;;;;;;;5.30;1.40;;;;;;;;;;4999791;28;100965;-84
2024/01/02 00:49:05;;;;;;;6.05;1.25;;;;;;;;;;5019807;28;101835;-84
2024/01/02 00:51:32;;;;;;;6.63;1.58;;;;;;;;;;5017086;28;99573;-84
2024/01/02 00:53:59;;;;;;;6.80;1.45;;;;;;;;;;5018158;28;98565;-83
2024/01/02 00:56:26;;;;;;;6.60;1.50;;;;;;;;;;4984122;28;98423;-82
2024/01/02 00:58:53;;;;;;;5.85;1.50;;;;;;;;;;5012256;27;98465;-83
2024/01/02 01:01:19;;;;;;;4.60;1.30;;;;;;;;;;5006021;28;102001;-82
2024/01/02 01:03:46;;;;;;;5.30;1.23;;;;;;;;;;5005140;28;98259;-83
2024/01/02 01:06:13;;;;;;;5.22;1.30;;;;;;;;;;5013678;27;100757;-83
2024/01/02 01:08:40;;;;;;;5.22;1.45;;;;;;;;;;4997751;28;100889;-83
2024/01/02 01:11:07;;;;;;;4.88;1.30;;;;;;;;;;4991942;28;98199;-83
2024/01/02 01:13:34;;;;;;;6.00;1.50;;;;;;;;;;5032656;27;100797;-83
2024/01/02 01:16:01;;;;;;;4.80;1.45;;;;;;;;;;5018443;28;98461;-83
2024/01/02 01:18:27;;;;;;;5.43;1.20;;;;;;;;;;5000808;28;101116;-82
2024/01/02 01:20:54;;;;;;;7.18;1.50;;;;;;;;;;4998407;28;98689;-81
2024/01/02 01:23:21;;;;;;;3.83;1.10;;;;;;;;;;5010466;28;98478;-82
2024/01/02 01:25:47;;;;;;;4.30;1.23;;;;;;;;;;4997794;28;101157;-82
2024/01/02 01:28:15;;;;;;;4.60;1.10;;;;;;;;;;4996087;28;105800;-83
2024/01/02 01:30:41;;;;;;;5.53;1.40;;;;;;;;;;5016663;27;98233;-83
2024/01/02 01:33:09;;;;;;;6.22;1.20;;;;;;;;;;4993489;28;101540;-83
2024/01/02 01:35:36;;;;;;;4.97;1.20;;;;;;;;;;4987446;28;98818;-83
2024/01/02 01:38:03;;;;;;;4.80;1.20;;;;;;;;;;5007526;28;101356;-82
2024/01/02 01:40:30;;;;;;;4.97;1.17;;;;;;;;;;5011951;28;98833;-83
2024/01/02 01:42:56;;;;;;;4.55;1.20;;;;;;;;;;4997146;28;97573;-83
2024/01/02 01:45:23;;;;;;;5.22;1.20;;;;;;;;;;5005891;28;98461;-83
2024/01/02 01:47:49;;;;;;;3.10;1.10;;;;;;;;;;5001600;28;98838;-81
2024/01/02 01:50:16;;;;;;;3.70;1.10;;;;;;;;;;5025449;28;99701;-83
2024/01/02 01:52:43;;;;;;;2.90;1.00;;;;;;;;;;5013921;28;100625;-82
2024/01/02 01:55:11;;;;;;;2.72;0.88;;;;;;;;;;4988096;28;98267;-81
2024/01/02 01:57:39;;;;;;;4.30;1.00;;;;;;;;;;4989809;28;98424;-81
2024/01/02 02:00:06;;;;;;;3.72;1.05;;;;;;;;;;4963403;28;101207;-82
2024/01/02 02:02:32;;;;;;;4.03;1.00;;;;;;;;;;4992174;28;98214;-80
2024/01/02 02:05:00;;;;;;;3.38;1.00;;;;;;;;;;4986327;28;101253;-83
2024/01/02 02:07:27;;;;;;;2.88;0.90;;;;;;;;;;5007013;28;100466;-82
2024/01/02 02:09:54;;;;;;;4.32;1.20;;;;;;;;;;4987416;28;98260;-82
2024/01/02 02:12:21;;;;;;;3.38;0.90;;;;;;;;;;4996135;28;100818;-82
2024/01/02 02:14:47;;;;;;;2.03;0.90;;;;;;;;;;4997689;28;102144;-82
2024/01/02 02:17:33;;;;;;;3.97;1.00;;;;;;;;;;4996017;28;101921;-82
2024/01/02 02:20:00;;;;;;;4.38;1.10;;;;;;;;;;5010959;28;105391;-82
2024/01/02 02:22:34;;;;;;;3.50;0.80;;;;;;;;;;5012586;27;98338;-83
2024/01/02 02:25:02;;;;;;;5.85;1.00;;;;;;;;;;4984940;28;101076;-83
2024/01/02 02:27:30;;;;;;;3.47;1.00;;;;;;;;;;5001909;27;98724;-82
2024/01/02 02:29:56;;;;;;;3.63;0.90;;;;;;;;;;4975056;28;98640;-82
2024/01/02 02:32:23;;;;;;;2.75;0.82;;;;;;;;;;4994088;28;98387;-82
2024/01/02 02:34:49;;;;;;;3.40;0.93;;;;;;;;;;5000393;28;99085;-80
2024/01/02 02:37:16;;;;;;;3.03;0.90;;;;;;;;;;5020135;27;98466;-80
2024/01/02 02:39:43;;;;;;;3.17;1.00;;;;;;;;;;4994014;28;102467;-81
2024/01/02 02:42:09;;;;;;;2.92;0.93;;;;;;;;;;4958915;28;98341;-82
2024/01/02 02:44:36;;;;;;;3.05;0.80;;;;;;;;;;4990824;28;105304;-80
2024/01/02 02:47:02;;;;;;;3.50;0.77;;;;;;;;;;4996307;28;99122;-81
2024/01/02 02:49:29;;;;;;;2.83;0.90;;;;;;;;;;4995272;28;98369;-82
2024/01/02 02:51:56;;;;;;;2.67;0.73;;;;;;;;;;5021986;27;100417;-84
2024/01/02 02:54:22;;;;;;;3.60;0.80;;;;;;;;;;4999123;28;99105;-84
2024/01/02 02:56:49;;;;;;;5.80;1.25;;;;;;;;;;5011990;27;97647;-83
2024/01/02 02:59:15;;;;;;;3.70;0.90;;;;;;;;;;5008531;28;98585;-83
2024/01/02 03:01:42;;;;;;;2.80;0.80;;;;;;;;;;5019471;28;98605;-84
2024/01/02 03:04:09;;;;;;;3.72;0.73;;;;;;;;;;5018212;28;99183;-84
2024/01/02 03:06:35;;;;;;;2.13;0.70;;;;;;;;;;4998630;28;103893;-84
2024/01/02 03:09:03;;;;;;;0.98;0.50;;;;;;;;;;5000290;28;98306;-84
2024/01/02 03:11:29;;;;;;;3.25;0.70;;;;;;;;;;5008404;28;101264;-83
2024/01/02 03:13:56;;;;;;;3.20;0.68;;;;;;;;;;5003248;28;99436;-83
2024/01/02 03:16:23;;;;;;;3.13;0.90;;;;;;;;;;5013639;28;98509;-83
2024/01/02 03:18:50;;;;;;;2.97;0.70;;;;;;;;;;5003999;28;98802;-82
2024/01/02 03:21:17;;;;;;;2.92;0.70;;;;;;;;;;4995115;28;100410;-82
2024/01/02 03:23:43;;;;;;;2.47;0.70;;;;;;;;;;5011195;28;98256;-83
2024/01/02 03:26:11;;;;;;;2.40;0.63;;;;;;;;;;5001483;27;99318;-82
2024/01/02 03:28:38;;;;;;;3.20;0.90;;;;;;;;;;4991116;28;99314;-83
2024/01/02 03:31:06;;;;;;;3.05;0.60;;;;;;;;;;5003895;28;99251;-82
2024/01/02 03:33:32;;;;;;;1.85;0.52;;;;;;;;;;5006654;28;98843;-83
2024/01/02 03:35:59;;;;;;;2.80;0.80;;;;;;;;;;4980021;28;98380;-82
2024/01/02 03:38:26;;;;;;;2.08;0.77;;;;;;;;;;5013131;28;98750;-81
2024/01/02 03:40:52;;;;;;;1.92;0.65;;;;;;;;;;4992156;28;101193;-82
2024/01/02 03:43:19;;;;;;;1.40;0.57;;;;;;;;;;5011152;28;101080;-82
2024/01/02 03:45:45;;;;;;;1.85;0.65;;;;;;;;;;5009012;28;98079;-84
2024/01/02 03:48:12;;;;;;;1.73;0.63;;;;;;;;;;5017844;27;98070;-82
2024/01/02 03:50:39;;;;;;;2.05;0.60;;;;;;;;;;5016964;28;101220;-82
2024/01/02 03:53:06;;;;;;;2.17;0.60;;;;;;;;;;5016119;28;101855;-82
2024/01/02 03:55:32;;;;;;;0.75;0.47;;;;;;;;;;5018583;27;98708;-82
2024/01/02 03:57:59;;;;;;;2.45;0.52;;;;;;;;;;5033403;28;101537;-83
2024/01/02 04:00:25;;;;;;;1.35;0.50;;;;;;;;;;5015688;27;101501;-83
2024/01/02 04:02:52;;;;;;;1.58;0.60;;;;;;;;;;5017226;28;98721;-83
2024/01/02 04:05:19;;;;;;;2.33;0.50;;;;;;;;;;4998085;28;99065;-82
2024/01/02 04:07:45;;;;;;;1.80;0.73;;;;;;;;;;4998958;28;98418;-84
2024/01/02 04:10:12;;;;;;;1.58;0.55;;;;;;;;;;5014406;28;98496;-82
2024/01/02 04:12:38;;;;;;;1.02;0.57;;;;;;;;;;5011937;28;99126;-82
2024/01/02 04:15:05;;;;;;;1.60;0.38;;;;;;;;;;4996318;28;98127;-82
2024/01/02 04:17:32;;;;;;;0.55;0.43;;;;;;;;;;5007399;28;99269;-83
2024/01/02 04:19:59;;;;;;;2.00;0.40;;;;;;;;;;4998778;28;101934;-82
2024/01/02 04:22:26;;;;;;;1.08;0.50;;;;;;;;;;5016015;27;98180;-83
2024/01/02 04:24:52;;;;;;;1.60;0.40;;;;;;;;;;5018233;28;101169;-83
2024/01/02 04:27:19;;;;;;;1.48;0.50;;;;;;;;;;5032744;28;98230;-83
2024/01/02 04:29:45;;;;;;;1.50;0.50;;;;;;;;;;5016014;28;100960;-83
2024/01/02 04:32:12;;;;;;;2.17;0.70;;;;;;;;;;4997485;28;101594;-82
2024/01/02 04:34:38;;;;;;;2.28;0.60;;;;;;;;;;4994096;28;97670;-83
2024/01/02 04:37:05;;;;;;;2.03;0.65;;;;;;;;;;5015663;28;100474;-83
2024/01/02 04:39:31;;;;;;;1.65;0.50;;;;;;;;;;5015722;28;98536;-83
2024/01/02 04:41:58;;;;;;;2.92;0.60;;;;;;;;;;5016980;27;99365;-82
2024/01/02 04:44:24;;;;;;;1.70;0.45;;;;;;;;;;5001677;27;99159;-82
2024/01/02 04:46:51;;;;;;;0.47;0.32;;;;;;;;;;5000599;28;98931;-83
2024/01/02 04:49:18;;;;;;;2.15;0.50;;;;;;;;;;4997101;28;98501;-83
2024/01/02 04:51:45;;;;;;;1.77;0.30;;;;;;;;;;4979122;28;101259;-83
2024/01/02 04:54:12;;;;;;;0.70;0.43;;;;;;;;;;5012089;28;98655;-83
2024/01/02 04:56:39;;;;;;;0.68;0.40;;;;;;;;;;5008606;28;98481;-83
2024/01/02 04:59:06;;;;;;;1.52;0.40;;;;;;;;;;4997544;28;99893;-83
2024/01/02 05:01:33;;;;;;;2.20;0.40;;;;;;;;;;4979554;28;98592;-82
2024/01/02 05:03:59;;;;;;;1.17;0.40;;;;;;;;;;5011184;28;98531;-84
2024/01/02 05:06:26;;;;;;;0.60;0.22;;;;;;;;;;5012326;28;101739;-83
2024/01/02 05:08:53;;;;;;;1.40;0.40;;;;;;;;;;4999026;28;98611;-83
2024/01/02 05:11:19;;;;;;;0.40;0.30;;;;;;;;;;5011564;28;101625;-82
2024/01/02 05:13:46;;;;;;;1.65;0.22;;;;;;;;;;4996056;28;98193;-82
2024/01/02 05:16:12;;;;;;;2.13;0.30;;;;;;;;;;4995160;27;101111;-82
2024/01/02 05:18:38;;;;;;;0.95;0.32;;;;;;;;;;4994939;28;101220;-81
2024/01/02 05:21:07;;;;;;;0.57;0.30;;;;;;;;;;4995846;28;98625;-82
2024/01/02 05:23:33;;;;;;;1.00;0.43;;;;;;;;;;4989955;28;99019;-83
2024/01/02 05:26:00;;;;;;;0.32;0.20;;;;;;;;;;4991697;28;99678;-83
2024/01/02 05:28:26;;;;;;;0.68;0.30;;;;;;;;;;4995108;28;98259;-83
2024/01/02 05:30:53;;;;;;;0.28;0.25;;;;;;;;;;4981514;28;101423;-83
2024/01/02 05:33:20;;;;;;;0.50;0.22;;;;;;;;;;5006284;28;98284;-83
2024/01/02 05:35:46;;;;;;;0.77;0.30;;;;;;;;;;5015952;28;100532;-83
2024/01/02 05:38:13;;;;;;;1.23;0.38;;;;;;;;;;4994687;28;101687;-84
2024/01/02 05:40:39;;;;;;;0.20;0.20;;;;;;;;;;4986233;28;98236;-83
2024/01/02 05:43:06;;;;;;;0.30;0.30;;;;;;;;;;4980859;28;98514;-84
2024/01/02 05:45:35;;;;;;;0.30;0.20;;;;;;;;;;4996639;28;100435;-82
2024/01/02 05:48:02;;;;;;;0.47;0.20;;;;;;;;;;4996374;28;97765;-82
2024/01/02 05:50:29;;;;;;;3.67;0.55;;;;;;;;;;4997332;28;98468;-82
2024/01/02 05:52:57;;;;;;;1.88;0.35;;;;;;;;;;5002153;28;98410;-81
2024/01/02 05:55:24;;;;;;;0.35;0.30;;;;;;;;;;5031124;28;99146;-80
2024/01/02 05:57:51;;;;;;;0.85;0.40;;;;;;;;;;5014500;28;98789;-82
2024/01/02 06:00:18;;;;;;;1.45;0.38;;;;;;;;;;4996720;28;98588;-81
2024/01/02 06:02:44;;;;;;;0.43;0.30;;;;;;;;;;4996497;28;98971;-84
2024/01/02 06:05:11;;;;;;;2.30;0.50;;;;;;;;;;4995025;28;98772;-82
2024/01/02 06:07:38;;;;;;;0.68;0.20;;;;;;;;;;4996414;28;98327;-83
2024/01/02 06:10:04;;;;;;;1.65;0.38;;;;;;;;;;5010175;28;101091;-83
2024/01/02 06:12:31;;;;;;;0.93;0.40;;;;;;;;;;5001665;27;98153;-83
2024/01/02 06:14:58;;;;;;;1.10;0.38;;;;;;;;;;5009468;27;98531;-83
2024/01/02 06:17:24;;;;;;;1.35;0.30;;;;;;;;;;4996065;28;98787;-83
2024/01/02 06:19:51;;;;;;;1.10;0.50;;;;;;;;;;4991207;28;98899;-82
2024/01/02 06:22:18;;;;;;;1.42;0.43;;;;;;;;;;4991115;28;101349;-82
2024/01/02 06:24:45;;;;;;;2.58;0.50;;;;;;;;;;4983178;28;98807;-82
2024/01/02 06:27:12;;;;;;;0.80;0.32;;;;;;;;;;4995609;28;98110;-83
2024/01/02 06:29:38;;;;;;;1.95;0.70;;;;;;;;;;4977953;28;98674;-82
2024/01/02 06:32:05;;;;;;;1.45;0.43;;;;;;;;;;4994932;28;101373;-82
2024/01/02 06:34:32;;;;;;;;;;;;;;;;;;5014864;28;98716;-83
2024/01/02 06:36:59;;;;;;;3.00;0.75;;;;;;;;;;5000465;28;121933;-81
2024/01/02 06:39:25;;;;;;;1.40;0.50;;;;;;;;;;5008569;28;98640;-81
2024/01/02 06:41:52;;;;;;;3.95;0.70;;;;;;;;;;5012466;28;98710;-82
2024/01/02 06:44:18;;;;;;;5.25;0.90;;;;;;;;;;5002029;28;102462;-82
2024/01/02 06:46:45;;;;;;;2.95;0.80;;;;;;;;;;5000002;28;98270;-82
2024/01/02 06:49:12;;;;;;;3.35;0.77;;;;;;;;;;5006161;27;98772;-82
2024/01/02 06:51:38;;;;;;;1.33;0.57;;;;;;;;;;4997594;28;101531;-83
2024/01/02 06:54:05;;;;;;;1.40;0.70;;;;;;;;;;5014768;28;98221;-82
2024/01/02 06:56:32;;;;;;;2.05;0.75;;;;;;;;;;5004581;28;98561;-82
2024/01/02 06:58:58;;;;;;;2.05;0.77;;;;;;;;;;5011324;28;98247;-82
2024/01/02 07:01:26;;;;;;;2.35;0.73;;;;;;;;;;4998435;28;101315;-82
2024/01/02 07:03:52;;;;;;;2.03;0.70;;;;;;;;;;5013550;28;99497;-80
2024/01/02 07:06:19;;;;;;;4.38;0.90;;;;;;;;;;5033556;27;98434;-83
2024/01/02 07:08:47;;;;;;;2.45;0.73;;;;;;;;;;5034076;27;99101;-82
2024/01/02 07:11:14;;;;;;;;;;;;;;;;;;5017826;28;101306;-82
2024/01/02 07:13:40;;;;;;;5.90;0.93;;;;;;;;;;5019247;28;98295;-82
2024/01/02 07:16:07;;;;;;;4.22;0.90;;;;;;;;;;5019281;27;99387;-80
2024/01/02 07:18:34;;;;;;;3.92;1.00;;;;;;;;;;5017419;27;98759;-82
2024/01/02 07:21:01;;;;;;;6.28;1.00;;;;;;;;;;5005413;28;99698;-83
2024/01/02 07:23:27;;;;;;;5.40;1.10;;;;;;;;;;5001004;28;100881;-81
2024/01/02 07:25:54;;;;;;;4.90;1.00;;;;;;;;;;5017555;28;97851;-83
2024/01/02 07:28:21;;;;;;;5.47;0.80;;;;;;;;;;4998870;28;100304;-82
2024/01/02 07:30:48;;;;;;;4.75;1.13;;;;;;;;;;5003702;28;98647;-81
2024/01/02 07:33:15;;;;;;;;;;;;;;;;;;4999771;28;98987;-82
2024/01/02 07:35:41;;;;;;;4.28;0.88;;;;;;;;;;4999440;28;98785;-81
2024/01/02 07:38:08;;;;;;;6.75;1.20;;;;;;;;;;4997125;28;101649;-82
2024/01/02 07:40:35;;;;;;;5.88;1.30;;;;;;;;;;4999148;28;98335;-82
2024/01/02 07:43:03;;;;;;;7.15;1.23;;;;;;;;;;5014182;28;98894;-82
2024/01/02 07:45:30;;;;;;;7.35;1.50;;;;;;;;;;5014729;28;106817;-82
2024/01/02 07:47:57;;;;;;;7.38;1.50;;;;;;;;;;5002735;28;100899;-82
2024/01/02 07:50:23;;;;;;;4.22;1.02;;;;;;;;;;5029425;28;98057;-82
2024/01/02 07:52:51;;;;;;;9.23;1.65;;;;;;;;;;5019846;28;98479;-84
2024/01/02 07:55:17;;;;;;;8.10;1.52;;;;;;;;;;5008733;28;99056;-83
2024/01/02 07:57:44;;;;;;;9.88;1.85;;;;;;;;;;5009150;28;100070;-84
2024/01/02 08:00:11;;;;;;;8.05;1.60;;;;;;;;;;5019935;28;98473;-83
2024/01/02 08:02:38;;;;;;;13.55;1.58;;;;;;;;;;5017187;28;100532;-82
2024/01/02 08:05:06;;;;;;;9.13;1.63;;;;;;;;;;5017951;28;98447;-83
2024/01/02 08:07:32;;;;;;;6.20;1.20;;;;;;;;;;5005827;28;98955;-81
2024/01/02 08:09:59;;;;;;;8.30;1.38;;;;;;;;;;4996686;27;98662;-82
2024/01/02 08:12:26;;;;;;;9.38;1.48;;;;;;;;;;4999507;27;97916;-84
2024/01/02 08:14:52;;;;;;;9.25;1.52;;;;;;;;;;5011367;28;98684;-83
2024/01/02 08:17:23;;;;;;;7.75;1.58;;;;;;;;;;5022293;28;101927;-81
2024/01/02 08:19:53;;;;;;;9.40;1.75;;;;;;;;;;5013720;28;98583;-81
2024/01/02 08:22:20;;;;;;;11.73;1.70;;;;;;;;;;5000490;27;101182;-81
2024/01/02 08:24:46;;;;;;;9.68;1.88;;;;;;;;;;4996837;28;98398;-81
2024/01/02 08:27:13;;;;;;;9.63;1.60;;;;;;;;;;4997477;28;98463;-81
2024/01/02 08:29:40;;;;;;;9.95;1.50;;;;;;;;;;5008901;28;98854;-82
2024/01/02 08:32:11;;;;;;;7.57;1.52;;;;;;;;;;4979938;28;98741;-82
2024/01/02 08:34:39;;;;;;;7.13;1.58;;;;;;;;;;5027595;28;98675;-83
2024/01/02 08:37:06;;;;;;;11.10;1.58;;;;;;;;;;4980481;28;101225;-81
2024/01/02 08:39:32;;;;;;;9.57;1.83;;;;;;;;;;4993145;27;97590;-82
2024/01/02 08:41:59;;;;;;;8.02;1.65;;;;;;;;;;5025032;28;98266;-81
2024/01/02 08:44:26;;;;;;;7.57;1.50;;;;;;;;;;5018525;28;98684;-81
2024/01/02 08:46:52;;;;;;;9.23;1.70;;;;;;;;;;4982156;28;100948;-82
2024/01/02 08:49:20;;;;;;;7.55;1.80;;;;;;;;;;4995361;28;98780;-81
2024/01/02 08:51:46;;;;;;;;;;;;;;;;;;4997612;28;98299;-82
2024/01/02 08:54:13;;;;;;;8.43;1.58;;;;;;;;;;4996789;28;98228;-80
2024/01/02 08:56:40;;;;;;;8.70;1.90;;;;;;;;;;4999578;28;98800;-82
2024/01/02 08:59:06;;;;;;;11.90;2.10;;;;;;;;;;5016347;28;98168;-82
2024/01/02 09:01:33;;;;;;;8.82;1.80;;;;;;;;;;5012865;28;101364;-82
2024/01/02 09:04:00;;;;;;;8.35;1.70;;;;;;;;;;5024361;28;98678;-82
2024/01/02 09:06:31;;;;;;;12.55;1.75;;;;;;;;;;5000883;27;98740;-83
2024/01/02 09:08:58;;;;;;;9.32;1.65;;;;;;;;;;4999116;28;99109;-82
2024/01/02 09:11:25;;;;;;;8.15;1.58;;;;;;;;;;4979751;28;99000;-82
2024/01/02 09:13:52;;;;;;;9.60;2.13;;;;;;;;;;5000938;28;101802;-83
2024/01/02 09:16:19;;;;;;;10.07;1.77;;;;;;;;;;4977054;28;102154;-83
2024/01/02 09:18:45;;;;;;;8.52;1.83;;;;;;;;;;4984712;28;98246;-82
2024/01/02 09:21:12;;;;;;;7.78;1.58;;;;;;;;;;4979677;28;101399;-83
2024/01/02 09:23:39;;;;;;;7.78;1.75;;;;;;;;;;5008002;28;101305;-83
2024/01/02 09:26:11;;;;;;;6.95;1.60;;;;;;;;;;5000077;28;98969;-82
2024/01/02 09:28:38;;;;;;;5.55;1.42;;;;;;;;;;5002061;28;104548;-81
2024/01/02 09:31:05;;;;;;;;;;;;;;;;;;4991839;28;98250;-81
2024/01/02 09:33:31;;;;;;;7.60;1.50;;;;;;;;;;5004871;28;100012;-81
2024/01/02 09:35:58;;;;;;;6.20;1.33;;;;;;;;;;4981593;28;99461;-81
2024/01/02 09:38:25;;;;;;;5.07;1.33;;;;;;;;;;4994340;28;98327;-81
2024/01/02 09:41:01;;;;;;;7.20;1.40;;;;;;;;;;4975775;28;98915;-81
2024/01/02 09:43:41;;;;;;;5.25;1.27;;;;;;;;;;4980526;28;98727;-79
2024/01/02 09:46:26;;;;;;;6.50;1.50;;;;;;;;;;4995315;28;98465;-81
2024/01/02 09:48:52;;;;;;;8.98;1.50;;;;;;;;;;4997690;28;105364;-81
2024/01/02 09:51:31;;;;;;;7.15;1.70;;;;;;;;;;4996404;28;98222;-81
2024/01/02 09:54:11;;;;;;;8.43;1.60;;;;;;;;;;4978880;28;100579;-80
2024/01/02 09:56:41;;;;;;;5.65;1.38;;;;;;;;;;5010984;28;103182;-81
2024/01/02 09:59:28;;;;;;;6.03;1.38;;;;;;;;;;4992572;28;98176;-79
2024/01/02 10:02:13;;;;;;;8.02;1.42;;;;;;;;;;4994256;28;99074;-80
2024/01/02 10:04:43;;;;;;;7.43;1.45;;;;;;;;;;4994330;28;104376;-82
2024/01/02 10:07:13;;;;;;;6.05;1.38;;;;;;;;;;4997216;27;99604;-82
2024/01/02 10:10:00;;;;;;;5.53;1.52;;;;;;;;;;4996660;28;98745;-82
2024/01/02 10:12:30;;;;;;;7.18;1.50;;;;;;;;;;5001657;28;99064;-80
2024/01/02 10:15:08;;;;;;;6.15;1.50;;;;;;;;;;4999025;28;99075;-80
2024/01/02 10:17:34;;;;;;;5.25;1.48;;;;;;;;;;4998659;28;99299;-81
2024/01/02 10:20:07;;;;;;;6.45;1.38;;;;;;;;;;5000234;27;97590;-80
2024/01/02 10:22:45;;;;;;;8.68;1.50;;;;;;;;;;4999986;28;98091;-84
2024/01/02 10:25:14;;;;;;;6.90;1.60;;;;;;;;;;4998368;28;99177;-82
2024/01/02 10:27:47;;;;;;;7.75;1.60;;;;;;;;;;4978624;28;99043;-80
2024/01/02 10:30:17;;;;;;;7.47;1.60;;;;;;;;;;4979999;28;99727;-82
2024/01/02 10:32:44;;;;;;;6.75;1.38;;;;;;;;;;5012729;28;98755;-82
2024/01/02 10:35:15;;;;;;;6.32;1.40;;;;;;;;;;5009994;28;104300;-82
2024/01/02 10:37:51;;;;;;;6.05;1.40;;;;;;;;;;5005273;28;99297;-81
2024/01/02 10:40:23;;;;;;;6.78;1.60;;;;;;;;;;4996748;28;98268;-80
2024/01/02 10:42:49;;;;;;;6.47;1.50;;;;;;;;;;4999994;28;98848;-80
2024/01/02 10:45:19;;;;;;;6.28;1.50;;;;;;;;;;4982570;28;101026;-81
2024/01/02 10:47:52;;;;;;;7.78;1.58;;;;;;;;;;4998664;28;98719;-81
2024/01/02 10:50:21;;;;;;;6.82;1.50;;;;;;;;;;4996728;28;100226;-82
2024/01/02 10:53:08;;;;;;;7.75;1.48;;;;;;;;;;4999440;28;100579;-81
2024/01/02 10:55:40;;;;;;;6.00;1.40;;;;;;;;;;4992449;28;98321;-81
2024/01/02 10:58:15;;;;;;;5.10;1.40;;;;;;;;;;5003318;28;98714;-83
2024/01/02 11:00:52;;;;;;;5.13;1.50;;;;;;;;;;5019010;27;98173;-83
2024/01/02 11:03:19;;;;;;;4.00;1.25;;;;;;;;;;5010489;28;98508;-82
2024/01/02 11:05:54;;;;;;;5.68;1.38;;;;;;;;;;4999565;28;98954;-81
2024/01/02 11:08:27;;;;;;;5.25;1.25;;;;;;;;;;5000358;27;98608;-82
2024/01/02 11:10:57;;;;;;;6.15;1.38;;;;;;;;;;4999153;28;98761;-83
2024/01/02 11:13:27;;;;;;;5.05;1.45;;;;;;;;;;4997737;28;101624;-82
2024/01/02 11:15:58;;;;;;;4.03;1.40;;;;;;;;;;4999388;27;98095;-83
2024/01/02 11:18:27;;;;;;;4.97;1.20;;;;;;;;;;4997476;28;98816;-81
2024/01/02 11:21:02;;;;;;;5.15;1.25;;;;;;;;;;5000622;28;100967;-85
2024/01/02 11:23:29;;;;;;;6.65;1.33;;;;;;;;;;4973312;28;100623;-85
2024/01/02 11:26:02;;;;;;;4.25;1.23;;;;;;;;;;4997139;28;98825;-84
2024/01/02 11:28:40;;;;;;;4.50;1.30;;;;;;;;;;4997235;28;98255;-80
2024/01/02 11:31:11;;;;;;;5.25;1.38;;;;;;;;;;4996731;28;98501;-81
2024/01/02 11:33:40;;;;;;;5.53;1.30;;;;;;;;;;5009437;28;98866;-80
2024/01/02 11:36:07;;;;;;;4.50;1.20;;;;;;;;;;5003007;27;97614;-82
2024/01/02 11:38:42;;;;;;;5.60;1.60;;;;;;;;;;4997377;28;100990;-82
2024/01/02 11:41:18;;;;;;;6.05;1.63;;;;;;;;;;4993864;28;101050;-81
2024/01/02 11:43:51;;;;;;;4.07;1.30;;;;;;;;;;4991487;28;98924;-81
2024/01/02 11:46:20;;;;;;;3.50;1.27;;;;;;;;;;4993890;28;101520;-80
2024/01/02 11:49:09;;;;;;;5.35;1.40;;;;;;;;;;4998183;28;98221;-81
2024/01/02 11:51:39;;;;;;;5.57;1.50;;;;;;;;;;4993761;28;100795;-80
2024/01/02 11:54:09;;;;;;;3.13;1.17;;;;;;;;;;4980550;28;102599;-82
2024/01/02 11:56:36;;;;;;;4.68;1.33;;;;;;;;;;4996072;28;98356;-79
2024/01/02 11:59:03;;;;;;;3.03;1.30;;;;;;;;;;5002929;28;98666;-79
2024/01/02 12:01:36;;;;;;;5.28;1.13;;;;;;;;;;5005284;28;98123;-78
2024/01/02 12:04:22;;;;;;;4.53;1.02;;;;;;;;;;4998075;28;98836;-78
2024/01/02 12:06:56;;;;;;;3.03;1.00;;;;;;;;;;4996855;28;103604;-79
2024/01/02 12:09:25;;;;;;;2.60;1.13;;;;;;;;;;4997770;27;99487;-79
2024/01/02 12:11:55;;;;;;;3.13;1.10;;;;;;;;;;4998128;27;99403;-79
2024/01/02 12:14:28;;;;;;;3.53;1.20;;;;;;;;;;5012889;28;99096;-80
2024/01/02 12:16:57;;;;;;;2.65;1.10;;;;;;;;;;5002911;28;98676;-80
2024/01/02 12:19:38;;;;;;;4.95;1.23;;;;;;;;;;5017781;27;98180;-80
2024/01/02 12:22:07;;;;;;;3.00;0.98;;;;;;;;;;5001363;28;98788;-78
2024/01/02 12:24:34;;;;;;;2.90;1.08;;;;;;;;;;4974519;28;98250;-80
2024/01/02 12:27:03;;;;;;;2.78;0.98;;;;;;;;;;5005537;27;100000;-82
2024/01/02 12:29:33;;;;;;;3.85;1.00;;;;;;;;;;5005985;28;98322;-78
2024/01/02 12:32:03;;;;;;;4.90;1.05;;;;;;;;;;4993490;28;98893;-81
2024/01/02 12:34:32;;;;;;;2.40;1.00;;;;;;;;;;4996499;28;99566;-81
2024/01/02 12:37:22;;;;;;;2.28;0.90;;;;;;;;;;4992509;28;98378;-79
2024/01/02 12:39:51;;;;;;;1.98;0.90;;;;;;;;;;4995090;28;100884;-79
2024/01/02 12:42:21;;;;;;;3.30;1.10;;;;;;;;;;4995866;28;100942;-80
2024/01/02 12:44:50;;;;;;;2.45;0.90;;;;;;;;;;5010736;28;98439;-80
2024/01/02 12:47:20;;;;;;;2.78;1.00;;;;;;;;;;4995806;28;100797;-81
2024/01/02 12:49:54;;;;;;;4.75;1.00;;;;;;;;;;4981861;28;101613;-80
2024/01/02 12:52:20;;;;;;;;;;;;;;;;;;4995790;27;98659;-81
2024/01/02 12:54:48;;;;;;;2.88;1.10;;;;;;;;;;5000147;28;117568;-81
2024/01/02 12:57:16;;;;;;;2.25;0.88;;;;;;;;;;5006684;28;105365;-81
2024/01/02 12:59:44;;;;;;;2.35;0.90;;;;;;;;;;4995845;28;99024;-81
2024/01/02 13:02:11;;;;;;;3.22;0.93;;;;;;;;;;5010702;27;98748;-81
2024/01/02 13:04:38;;;;;;;3.15;0.80;;;;;;;;;;4995123;28;98657;-81
2024/01/02 13:07:07;;;;;;;1.85;0.93;;;;;;;;;;4996433;28;98444;-80
2024/01/02 13:09:33;;;;;;;2.00;0.98;;;;;;;;;;4997016;28;99233;-80
2024/01/02 13:12:01;;;;;;;2.42;0.90;;;;;;;;;;4999066;28;98226;-79
2024/01/02 13:14:28;;;;;;;4.68;0.93;;;;;;;;;;4996029;28;99225;-80
2024/01/02 13:16:55;;;;;;;2.55;1.00;;;;;;;;;;4997680;28;97642;-79
2024/01/02 13:19:22;;;;;;;3.65;0.90;;;;;;;;;;4997410;28;98253;-79
2024/01/02 13:21:49;;;;;;;2.17;0.85;;;;;;;;;;4997202;28;99371;-79
2024/01/02 13:24:16;;;;;;;3.70;1.05;;;;;;;;;;4994017;28;99060;-80
2024/01/02 13:26:43;;;;;;;2.53;1.00;;;;;;;;;;4979601;28;101746;-81
2024/01/02 13:29:11;;;;;;;2.55;0.80;;;;;;;;;;4996549;28;98672;-80
2024/01/02 13:31:38;;;;;;;1.48;0.77;;;;;;;;;;4998115;28;98737;-80
2024/01/02 13:34:05;;;;;;;1.73;0.85;;;;;;;;;;4993362;28;101173;-80
2024/01/02 13:36:33;;;;;;;1.83;0.80;;;;;;;;;;4997183;28;98318;-81
2024/01/02 13:38:59;;;;;;;;;;;;;;;;;;4998123;28;98482;-80
2024/01/02 13:41:28;;;;;;;2.95;0.90;;;;;;;;;;5000380;28;104794;-80
2024/01/02 13:44:06;;;;;;;2.35;0.95;;;;;;;;;;4995696;28;98449;-79
2024/01/02 13:46:33;;;;;;;6.43;1.02;;;;;;;;;;4996983;28;98571;-80
2024/01/02 13:48:59;;;;;;;7.65;1.38;;;;;;;;;;5003151;27;99542;-78
2024/01/02 13:51:28;;;;;;;5.22;1.20;;;;;;;;;;5006541;28;98132;-79
2024/01/02 13:54:01;;;;;;;6.03;1.25;;;;;;;;;;4994844;28;98567;-81
2024/01/02 13:56:29;;;;;;;3.13;0.90;;;;;;;;;;5017243;27;99804;-79
2024/01/02 13:58:57;;;;;;;4.25;1.08;;;;;;;;;;5016922;28;98999;-80
2024/01/02 14:01:41;;;;;;;3.83;1.00;;;;;;;;;;5016827;27;98640;-81
2024/01/02 14:04:18;;;;;;;2.42;0.73;;;;;;;;;;5016180;27;99321;-78
2024/01/02 14:06:45;;;;;;;2.47;0.70;;;;;;;;;;4996059;28;102584;-78
2024/01/02 14:09:16;;;;;;;4.22;0.90;;;;;;;;;;4994427;28;99245;-78
2024/01/02 14:11:54;;;;;;;2.53;0.80;;;;;;;;;;4994946;28;98571;-79
2024/01/02 14:14:44;;;;;;;4.30;0.80;;;;;;;;;;4975906;28;100507;-80
2024/01/02 14:17:12;;;;;;;3.33;0.82;;;;;;;;;;4998528;28;99779;-78
2024/01/02 14:19:42;;;;;;;2.45;0.70;;;;;;;;;;4994447;28;99203;-79
2024/01/02 14:22:22;;;;;;;1.95;0.70;;;;;;;;;;4995469;28;98966;-78
2024/01/02 14:25:09;;;;;;;3.95;0.80;;;;;;;;;;5013401;28;98831;-78
2024/01/02 14:27:45;;;;;;;3.38;0.85;;;;;;;;;;4996095;28;98673;-79
2024/01/02 14:30:21;;;;;;;1.27;0.60;;;;;;;;;;4995858;27;99234;-80
2024/01/02 14:32:56;;;;;;;2.50;0.68;;;;;;;;;;5002034;28;97692;-80
2024/01/02 14:35:25;;;;;;;3.40;0.70;;;;;;;;;;5007082;28;98527;-80
2024/01/02 14:38:10;;;;;;;1.92;0.80;;;;;;;;;;5001161;27;99153;-83
2024/01/02 14:40:43;;;;;;;2.67;0.80;;;;;;;;;;4993163;28;99623;-86
2024/01/02 14:43:24;;;;;;;1.63;0.63;;;;;;;;;;4995039;28;98786;-82
2024/01/02 14:45:54;;;;;;;2.13;0.80;;;;;;;;;;4994819;28;98409;-83
2024/01/02 14:48:25;;;;;;;1.75;0.70;;;;;;;;;;4994839;28;99997;-82